Share

Auk-Alfa, Netherlands

3:40 AM CEST on April 25, 2014 (GMT +0200)
Ekofisk (ENEK) Elev 10 ft | 56.55 °N, 3.25 °E | Change Station

Current weather conditions updated 20 minutes ago

Mostly Cloudy
Mostly Cloudy
46 °F
Feels Like 40 °F
N
17
Wind Variable Wind from East
Sunrise 6:20 AM
Sunset 9:20 PM
Moon Waning Crescent

Today is forecast to be nearly the same temperature as yesterday. Showers late tonight.

Pressure 30.15 in
Visibility 6.2 miles
Clouds Mostly Cloudy 1000 ft
Windchill 40 °F
Dew Point 43 °F
Humidity 87%
Rainfall 0.00 in
Snow Depth Not available.
UV 0 out of 16
Pollen Not available.
Air Quality Not available.
Flu Activity Not available.
METAR ENEK 250120Z 08015KT 9999 BKN010 08/06 Q1021 W09/S4

More Conditions Fewer Conditions

Pressure 30.15 in
Visibility 6.2 miles
Clouds Mostly Cloudy 1000 ft
Windchill 40 °F
Dew Point 43 °F
Humidity 87%
Rainfall 0.00 in
Snow Depth Not available.
UV 0 out of 16
Pollen Not available.
Air Quality Not available.
Flu Activity Not available.
METAR ENEK 250120Z 08015KT 9999 BKN010 08/06 Q1021 W09/S4

More Conditions Fewer Conditions

10-Day Weather Forecast

Almanac

Astronomy

Apr. 25, 2014 Rise Set
Actual Time 6:20 AM CEST 9:20 PM CEST
Civil Twilight 5:37 AM CEST 10:03 PM CEST
Nautical Twilight 4:39 AM CEST 11:01 PM CEST
Astronomical Twilight 3:19 AM CEST 12:24 AM CEST
Moon 4:48 AM CEST 4:41 PM CEST
Length of Visible Light 16h 26m
Length of Day
14h 59m
Tomorrow will be 4m 29s longer.
Waning Crescent, 21% of the Moon is Illuminated
Apr 24
Waning Crescent
Apr 29
New
May 6
First Quarter
May 14
Full
May 21
Last Quarter

Yesterday's Extremes

Country Highs Country Lows

Community

  • Jone Runs Falls
    Jone Runs Falls
  • Easter in Shenandoah National Park
    Easter in Shenandoah National Park
  • Sunset at Apalachicola Bay, Florida
    Sunset at Apalachicola Bay, Florida
  • Clouds mov'n in
    Clouds mov'n in
  • Stacked
    Stacked

WunderPhotos

Upload Photos

1,704,789 photos uploaded!

Nearby

Snow Depth

Not available.

Coastal Water Temperatures

Place Temperature
No Stations Reporting

Earthquake Activity

City Distance Mag. Time & Date
No recent earthquake activity has been reported nearby.
Minimum magnitude displayed is 2.5.

Nearby Weather Stations

There are no personal weather stations in this area.

What do you think?

We're not finished. Please let us know what you like, what you don't like, and what you are still missing.